sensor_id;sensor_type;location;lat;lon;timestamp;P1;durP1;ratioP1;P2;durP2;ratioP2
22388;SDS011;11362;48.102;11.620;2023-10-31T00:01:03;4.63;;;2.10;;
22388;SDS011;11362;48.102;11.620;2023-10-31T00:03:28;2.33;;;1.87;;
22388;SDS011;11362;48.102;11.620;2023-10-31T00:05:54;4.07;;;1.73;;
22388;SDS011;11362;48.102;11.620;2023-10-31T00:08:19;6.13;;;1.67;;
22388;SDS011;11362;48.102;11.620;2023-10-31T00:10:44;2.03;;;1.87;;
22388;SDS011;11362;48.102;11.620;2023-10-31T00:13:10;3.33;;;1.90;;
22388;SDS011;11362;48.102;11.620;2023-10-31T00:15:36;3.53;;;1.53;;
22388;SDS011;11362;48.102;11.620;2023-10-31T00:18:01;4.37;;;1.83;;
22388;SDS011;11362;48.102;11.620;2023-10-31T00:20:26;2.60;;;1.90;;
22388;SDS011;11362;48.102;11.620;2023-10-31T00:22:51;1.60;;;1.50;;
22388;SDS011;11362;48.102;11.620;2023-10-31T00:25:17;3.73;;;1.63;;
22388;SDS011;11362;48.102;11.620;2023-10-31T00:27:42;1.73;;;1.63;;
22388;SDS011;11362;48.102;11.620;2023-10-31T00:30:07;3.27;;;1.40;;
22388;SDS011;11362;48.102;11.620;2023-10-31T00:32:33;3.73;;;1.50;;
22388;SDS011;11362;48.102;11.620;2023-10-31T00:34:58;3.03;;;1.70;;
22388;SDS011;11362;48.102;11.620;2023-10-31T00:37:23;1.67;;;1.23;;
22388;SDS011;11362;48.102;11.620;2023-10-31T00:39:48;2.90;;;1.40;;
22388;SDS011;11362;48.102;11.620;2023-10-31T00:42:14;2.93;;;1.50;;
22388;SDS011;11362;48.102;11.620;2023-10-31T00:44:39;2.97;;;1.53;;
22388;SDS011;11362;48.102;11.620;2023-10-31T00:47:04;2.00;;;1.43;;
22388;SDS011;11362;48.102;11.620;2023-10-31T00:49:30;2.23;;;1.47;;
22388;SDS011;11362;48.102;11.620;2023-10-31T00:51:55;4.00;;;1.30;;
22388;SDS011;11362;48.102;11.620;2023-10-31T00:54:20;3.50;;;1.70;;
22388;SDS011;11362;48.102;11.620;2023-10-31T00:56:45;1.33;;;1.23;;
22388;SDS011;11362;48.102;11.620;2023-10-31T00:59:11;2.20;;;1.50;;
22388;SDS011;11362;48.102;11.620;2023-10-31T01:01:36;2.23;;;1.20;;
22388;SDS011;11362;48.102;11.620;2023-10-31T01:04:02;4.43;;;1.60;;
22388;SDS011;11362;48.102;11.620;2023-10-31T01:06:27;4.20;;;1.67;;
22388;SDS011;11362;48.102;11.620;2023-10-31T01:08:52;4.77;;;1.33;;
22388;SDS011;11362;48.102;11.620;2023-10-31T01:11:17;3.03;;;1.20;;
22388;SDS011;11362;48.102;11.620;2023-10-31T01:13:43;1.40;;;1.20;;
22388;SDS011;11362;48.102;11.620;2023-10-31T01:16:08;2.30;;;1.20;;
22388;SDS011;11362;48.102;11.620;2023-10-31T01:18:33;1.63;;;1.20;;
22388;SDS011;11362;48.102;11.620;2023-10-31T01:20:59;3.43;;;1.30;;
22388;SDS011;11362;48.102;11.620;2023-10-31T01:23:24;2.00;;;1.27;;
22388;SDS011;11362;48.102;11.620;2023-10-31T01:25:49;1.70;;;1.27;;
22388;SDS011;11362;48.102;11.620;2023-10-31T01:28:14;2.60;;;1.33;;
22388;SDS011;11362;48.102;11.620;2023-10-31T01:30:40;1.43;;;1.00;;
22388;SDS011;11362;48.102;11.620;2023-10-31T01:33:05;1.53;;;1.30;;
22388;SDS011;11362;48.102;11.620;2023-10-31T01:35:30;4.67;;;1.43;;
22388;SDS011;11362;48.102;11.620;2023-10-31T01:37:56;2.90;;;1.20;;
22388;SDS011;11362;48.102;11.620;2023-10-31T01:40:21;1.37;;;1.07;;
22388;SDS011;11362;48.102;11.620;2023-10-31T01:42:46;3.93;;;1.50;;
22388;SDS011;11362;48.102;11.620;2023-10-31T01:45:12;1.50;;;1.10;;
22388;SDS011;11362;48.102;11.620;2023-10-31T01:47:38;4.50;;;1.37;;
22388;SDS011;11362;48.102;11.620;2023-10-31T01:50:03;2.00;;;1.33;;
22388;SDS011;11362;48.102;11.620;2023-10-31T01:52:31;2.90;;;1.30;;
22388;SDS011;11362;48.102;11.620;2023-10-31T01:54:57;2.40;;;0.90;;
22388;SDS011;11362;48.102;11.620;2023-10-31T01:57:22;1.67;;;0.90;;
22388;SDS011;11362;48.102;11.620;2023-10-31T01:59:47;1.50;;;1.03;;
22388;SDS011;11362;48.102;11.620;2023-10-31T02:02:13;3.03;;;1.17;;
22388;SDS011;11362;48.102;11.620;2023-10-31T02:04:39;1.10;;;1.00;;
22388;SDS011;11362;48.102;11.620;2023-10-31T02:07:04;1.23;;;0.83;;
22388;SDS011;11362;48.102;11.620;2023-10-31T02:09:30;2.47;;;1.20;;
22388;SDS011;11362;48.102;11.620;2023-10-31T02:11:55;2.13;;;1.33;;
22388;SDS011;11362;48.102;11.620;2023-10-31T02:14:23;1.83;;;0.93;;
22388;SDS011;11362;48.102;11.620;2023-10-31T02:16:49;1.03;;;0.87;;
22388;SDS011;11362;48.102;11.620;2023-10-31T02:19:15;4.70;;;1.43;;
22388;SDS011;11362;48.102;11.620;2023-10-31T02:21:44;1.37;;;1.20;;
22388;SDS011;11362;48.102;11.620;2023-10-31T02:24:09;1.80;;;1.10;;
22388;SDS011;11362;48.102;11.620;2023-10-31T02:26:34;3.50;;;1.13;;
22388;SDS011;11362;48.102;11.620;2023-10-31T02:29:00;4.17;;;1.00;;
22388;SDS011;11362;48.102;11.620;2023-10-31T02:31:26;3.20;;;1.03;;
22388;SDS011;11362;48.102;11.620;2023-10-31T02:33:52;2.27;;;0.87;;
22388;SDS011;11362;48.102;11.620;2023-10-31T02:36:18;1.90;;;1.00;;
22388;SDS011;11362;48.102;11.620;2023-10-31T02:38:44;1.00;;;0.93;;
22388;SDS011;11362;48.102;11.620;2023-10-31T02:41:09;2.50;;;1.50;;
22388;SDS011;11362;48.102;11.620;2023-10-31T02:43:35;1.37;;;1.27;;
22388;SDS011;11362;48.102;11.620;2023-10-31T02:46:00;1.70;;;1.10;;
22388;SDS011;11362;48.102;11.620;2023-10-31T02:48:26;1.93;;;0.90;;
22388;SDS011;11362;48.102;11.620;2023-10-31T02:50:51;1.83;;;0.70;;
22388;SDS011;11362;48.102;11.620;2023-10-31T02:53:20;1.93;;;0.97;;
22388;SDS011;11362;48.102;11.620;2023-10-31T02:55:45;4.17;;;1.27;;
22388;SDS011;11362;48.102;11.620;2023-10-31T02:58:10;3.00;;;1.00;;
22388;SDS011;11362;48.102;11.620;2023-10-31T03:00:36;3.83;;;1.13;;
22388;SDS011;11362;48.102;11.620;2023-10-31T03:03:01;1.20;;;0.97;;
22388;SDS011;11362;48.102;11.620;2023-10-31T03:05:27;1.20;;;0.90;;
22388;SDS011;11362;48.102;11.620;2023-10-31T03:07:52;1.67;;;1.07;;
22388;SDS011;11362;48.102;11.620;2023-10-31T03:10:17;3.67;;;0.90;;
22388;SDS011;11362;48.102;11.620;2023-10-31T03:12:42;3.80;;;1.07;;
22388;SDS011;11362;48.102;11.620;2023-10-31T03:15:08;3.27;;;1.10;;
22388;SDS011;11362;48.102;11.620;2023-10-31T03:17:33;1.53;;;0.70;;
22388;SDS011;11362;48.102;11.620;2023-10-31T03:19:59;2.10;;;1.10;;
22388;SDS011;11362;48.102;11.620;2023-10-31T03:22:24;4.70;;;0.87;;
22388;SDS011;11362;48.102;11.620;2023-10-31T03:24:49;3.57;;;1.10;;
22388;SDS011;11362;48.102;11.620;2023-10-31T03:27:15;3.57;;;0.90;;
22388;SDS011;11362;48.102;11.620;2023-10-31T03:29:40;3.20;;;1.03;;
22388;SDS011;11362;48.102;11.620;2023-10-31T03:32:05;2.63;;;1.10;;
22388;SDS011;11362;48.102;11.620;2023-10-31T03:34:31;4.17;;;0.70;;
22388;SDS011;11362;48.102;11.620;2023-10-31T03:36:56;4.13;;;0.90;;
22388;SDS011;11362;48.102;11.620;2023-10-31T03:39:21;0.80;;;0.80;;
22388;SDS011;11362;48.102;11.620;2023-10-31T03:41:47;2.70;;;1.00;;
22388;SDS011;11362;48.102;11.620;2023-10-31T03:44:12;4.00;;;1.40;;
22388;SDS011;11362;48.102;11.620;2023-10-31T03:46:37;2.43;;;1.30;;
22388;SDS011;11362;48.102;11.620;2023-10-31T03:49:02;2.13;;;1.17;;
22388;SDS011;11362;48.102;11.620;2023-10-31T03:51:28;4.07;;;0.90;;
22388;SDS011;11362;48.102;11.620;2023-10-31T03:53:53;4.23;;;0.80;;
22388;SDS011;11362;48.102;11.620;2023-10-31T03:56:18;3.97;;;1.13;;
22388;SDS011;11362;48.102;11.620;2023-10-31T03:58:44;2.17;;;0.97;;
22388;SDS011;11362;48.102;11.620;2023-10-31T04:01:09;2.67;;;0.90;;
22388;SDS011;11362;48.102;11.620;2023-10-31T04:03:34;1.87;;;0.90;;
22388;SDS011;11362;48.102;11.620;2023-10-31T04:05:59;3.53;;;0.73;;
22388;SDS011;11362;48.102;11.620;2023-10-31T04:08:25;3.43;;;1.20;;
22388;SDS011;11362;48.102;11.620;2023-10-31T04:10:50;0.80;;;0.60;;
22388;SDS011;11362;48.102;11.620;2023-10-31T04:13:15;1.77;;;1.30;;
22388;SDS011;11362;48.102;11.620;2023-10-31T04:15:41;3.07;;;1.17;;
22388;SDS011;11362;48.102;11.620;2023-10-31T04:18:06;1.73;;;0.93;;
22388;SDS011;11362;48.102;11.620;2023-10-31T04:20:31;2.17;;;1.17;;
22388;SDS011;11362;48.102;11.620;2023-10-31T04:22:56;2.53;;;0.80;;
22388;SDS011;11362;48.102;11.620;2023-10-31T04:25:22;1.33;;;0.73;;
22388;SDS011;11362;48.102;11.620;2023-10-31T04:27:47;2.83;;;0.80;;
22388;SDS011;11362;48.102;11.620;2023-10-31T04:30:12;3.33;;;0.97;;
22388;SDS011;11362;48.102;11.620;2023-10-31T04:32:37;1.57;;;0.93;;
22388;SDS011;11362;48.102;11.620;2023-10-31T04:35:03;1.70;;;0.73;;
22388;SDS011;11362;48.102;11.620;2023-10-31T04:37:28;2.57;;;0.90;;
22388;SDS011;11362;48.102;11.620;2023-10-31T04:39:54;1.97;;;0.80;;
22388;SDS011;11362;48.102;11.620;2023-10-31T04:42:19;0.67;;;0.50;;
22388;SDS011;11362;48.102;11.620;2023-10-31T04:44:44;2.97;;;1.07;;
22388;SDS011;11362;48.102;11.620;2023-10-31T04:47:09;2.47;;;0.83;;
22388;SDS011;11362;48.102;11.620;2023-10-31T04:49:35;1.23;;;0.73;;
22388;SDS011;11362;48.102;11.620;2023-10-31T04:52:00;2.23;;;0.90;;
22388;SDS011;11362;48.102;11.620;2023-10-31T04:54:25;2.20;;;0.67;;
22388;SDS011;11362;48.102;11.620;2023-10-31T04:56:51;1.93;;;0.80;;
22388;SDS011;11362;48.102;11.620;2023-10-31T04:59:16;2.33;;;0.80;;
22388;SDS011;11362;48.102;11.620;2023-10-31T05:01:43;0.77;;;0.70;;
22388;SDS011;11362;48.102;11.620;2023-10-31T05:04:13;0.97;;;0.83;;
22388;SDS011;11362;48.102;11.620;2023-10-31T05:06:38;3.57;;;0.90;;
22388;SDS011;11362;48.102;11.620;2023-10-31T05:09:04;3.17;;;0.97;;
22388;SDS011;11362;48.102;11.620;2023-10-31T05:11:29;5.40;;;0.93;;
22388;SDS011;11362;48.102;11.620;2023-10-31T05:13:54;1.43;;;0.87;;
22388;SDS011;11362;48.102;11.620;2023-10-31T05:16:19;2.70;;;0.60;;
22388;SDS011;11362;48.102;11.620;2023-10-31T05:18:45;1.70;;;0.70;;
22388;SDS011;11362;48.102;11.620;2023-10-31T05:21:10;2.17;;;0.63;;
22388;SDS011;11362;48.102;11.620;2023-10-31T05:23:35;1.73;;;0.70;;
22388;SDS011;11362;48.102;11.620;2023-10-31T05:26:00;2.33;;;0.70;;
22388;SDS011;11362;48.102;11.620;2023-10-31T05:28:26;2.63;;;0.70;;
22388;SDS011;11362;48.102;11.620;2023-10-31T05:30:51;1.33;;;0.70;;
22388;SDS011;11362;48.102;11.620;2023-10-31T05:33:16;1.27;;;0.70;;
22388;SDS011;11362;48.102;11.620;2023-10-31T05:35:42;1.83;;;0.80;;
22388;SDS011;11362;48.102;11.620;2023-10-31T05:38:07;3.90;;;0.83;;
22388;SDS011;11362;48.102;11.620;2023-10-31T05:40:33;2.77;;;1.23;;
22388;SDS011;11362;48.102;11.620;2023-10-31T05:42:58;0.97;;;0.73;;
22388;SDS011;11362;48.102;11.620;2023-10-31T05:45:23;0.87;;;0.80;;
22388;SDS011;11362;48.102;11.620;2023-10-31T05:47:49;2.80;;;0.60;;
22388;SDS011;11362;48.102;11.620;2023-10-31T05:50:14;1.10;;;0.70;;
22388;SDS011;11362;48.102;11.620;2023-10-31T05:52:39;1.50;;;0.73;;
22388;SDS011;11362;48.102;11.620;2023-10-31T05:55:04;2.13;;;0.60;;
22388;SDS011;11362;48.102;11.620;2023-10-31T05:57:30;1.23;;;0.70;;
22388;SDS011;11362;48.102;11.620;2023-10-31T05:59:55;2.53;;;0.60;;
22388;SDS011;11362;48.102;11.620;2023-10-31T06:02:21;2.37;;;1.00;;
22388;SDS011;11362;48.102;11.620;2023-10-31T06:04:46;5.57;;;1.13;;
22388;SDS011;11362;48.102;11.620;2023-10-31T06:07:11;4.50;;;1.23;;
22388;SDS011;11362;48.102;11.620;2023-10-31T06:09:37;4.03;;;1.43;;
22388;SDS011;11362;48.102;11.620;2023-10-31T06:12:02;11.93;;;2.10;;
22388;SDS011;11362;48.102;11.620;2023-10-31T06:14:28;8.63;;;2.07;;
22388;SDS011;11362;48.102;11.620;2023-10-31T06:16:53;12.63;;;2.10;;
22388;SDS011;11362;48.102;11.620;2023-10-31T06:19:18;9.43;;;2.00;;
22388;SDS011;11362;48.102;11.620;2023-10-31T06:21:43;6.07;;;1.70;;
22388;SDS011;11362;48.102;11.620;2023-10-31T06:24:09;8.97;;;1.83;;
22388;SDS011;11362;48.102;11.620;2023-10-31T06:26:34;5.63;;;1.67;;
22388;SDS011;11362;48.102;11.620;2023-10-31T06:28:59;6.77;;;1.23;;
22388;SDS011;11362;48.102;11.620;2023-10-31T06:31:25;8.40;;;1.60;;
22388;SDS011;11362;48.102;11.620;2023-10-31T06:33:50;7.63;;;1.70;;
22388;SDS011;11362;48.102;11.620;2023-10-31T06:36:15;4.40;;;1.60;;
22388;SDS011;11362;48.102;11.620;2023-10-31T06:38:41;8.53;;;1.87;;
22388;SDS011;11362;48.102;11.620;2023-10-31T06:41:06;10.90;;;1.90;;
22388;SDS011;11362;48.102;11.620;2023-10-31T06:43:32;6.87;;;1.97;;
22388;SDS011;11362;48.102;11.620;2023-10-31T06:45:57;7.57;;;2.10;;
22388;SDS011;11362;48.102;11.620;2023-10-31T06:48:22;5.60;;;1.63;;
22388;SDS011;11362;48.102;11.620;2023-10-31T06:50:47;7.90;;;1.60;;
22388;SDS011;11362;48.102;11.620;2023-10-31T06:53:13;8.57;;;2.27;;
22388;SDS011;11362;48.102;11.620;2023-10-31T06:55:38;10.53;;;2.43;;
22388;SDS011;11362;48.102;11.620;2023-10-31T06:58:03;8.20;;;2.07;;
22388;SDS011;11362;48.102;11.620;2023-10-31T07:00:29;13.50;;;2.53;;
22388;SDS011;11362;48.102;11.620;2023-10-31T07:02:54;16.30;;;2.97;;
22388;SDS011;11362;48.102;11.620;2023-10-31T07:05:19;9.37;;;1.90;;
22388;SDS011;11362;48.102;11.620;2023-10-31T07:07:45;10.73;;;2.50;;
22388;SDS011;11362;48.102;11.620;2023-10-31T07:10:10;12.50;;;2.50;;
22388;SDS011;11362;48.102;11.620;2023-10-31T07:12:35;4.73;;;1.30;;
22388;SDS011;11362;48.102;11.620;2023-10-31T07:15:00;4.30;;;0.90;;
22388;SDS011;11362;48.102;11.620;2023-10-31T07:17:26;3.20;;;1.00;;
22388;SDS011;11362;48.102;11.620;2023-10-31T07:19:51;3.27;;;0.90;;
22388;SDS011;11362;48.102;11.620;2023-10-31T07:22:17;5.57;;;0.80;;
22388;SDS011;11362;48.102;11.620;2023-10-31T07:24:42;2.47;;;0.83;;
22388;SDS011;11362;48.102;11.620;2023-10-31T07:27:08;2.73;;;0.87;;
22388;SDS011;11362;48.102;11.620;2023-10-31T07:29:34;1.30;;;0.80;;
22388;SDS011;11362;48.102;11.620;2023-10-31T07:32:00;7.23;;;1.33;;
22388;SDS011;11362;48.102;11.620;2023-10-31T07:34:25;7.77;;;1.47;;
22388;SDS011;11362;48.102;11.620;2023-10-31T07:36:50;6.70;;;1.00;;
22388;SDS011;11362;48.102;11.620;2023-10-31T07:39:16;6.57;;;1.00;;
22388;SDS011;11362;48.102;11.620;2023-10-31T07:41:41;4.40;;;1.03;;
22388;SDS011;11362;48.102;11.620;2023-10-31T07:44:06;9.53;;;1.50;;
22388;SDS011;11362;48.102;11.620;2023-10-31T07:46:32;5.40;;;1.00;;
22388;SDS011;11362;48.102;11.620;2023-10-31T07:48:57;2.57;;;1.03;;
22388;SDS011;11362;48.102;11.620;2023-10-31T07:51:22;5.63;;;1.00;;
22388;SDS011;11362;48.102;11.620;2023-10-31T07:53:47;6.43;;;1.77;;
22388;SDS011;11362;48.102;11.620;2023-10-31T07:56:16;4.50;;;1.33;;
22388;SDS011;11362;48.102;11.620;2023-10-31T07:58:42;4.67;;;1.20;;
22388;SDS011;11362;48.102;11.620;2023-10-31T08:01:08;4.60;;;1.10;;
22388;SDS011;11362;48.102;11.620;2023-10-31T08:03:33;5.23;;;1.20;;
22388;SDS011;11362;48.102;11.620;2023-10-31T08:05:58;4.87;;;0.97;;
22388;SDS011;11362;48.102;11.620;2023-10-31T08:08:23;6.33;;;1.13;;
22388;SDS011;11362;48.102;11.620;2023-10-31T08:10:49;5.40;;;1.17;;
22388;SDS011;11362;48.102;11.620;2023-10-31T08:13:14;2.57;;;1.37;;
22388;SDS011;11362;48.102;11.620;2023-10-31T08:15:39;1.40;;;0.83;;
22388;SDS011;11362;48.102;11.620;2023-10-31T08:18:04;4.90;;;1.00;;
22388;SDS011;11362;48.102;11.620;2023-10-31T08:20:30;3.87;;;1.10;;
22388;SDS011;11362;48.102;11.620;2023-10-31T08:22:55;4.53;;;1.17;;
22388;SDS011;11362;48.102;11.620;2023-10-31T08:25:20;2.87;;;0.90;;
22388;SDS011;11362;48.102;11.620;2023-10-31T08:27:46;0.87;;;0.70;;
22388;SDS011;11362;48.102;11.620;2023-10-31T08:30:11;2.30;;;0.80;;
22388;SDS011;11362;48.102;11.620;2023-10-31T08:32:36;2.70;;;0.97;;
22388;SDS011;11362;48.102;11.620;2023-10-31T08:35:02;2.90;;;1.20;;
22388;SDS011;11362;48.102;11.620;2023-10-31T08:37:27;4.27;;;1.03;;
22388;SDS011;11362;48.102;11.620;2023-10-31T08:39:52;4.27;;;0.80;;
22388;SDS011;11362;48.102;11.620;2023-10-31T08:42:17;3.87;;;1.40;;
22388;SDS011;11362;48.102;11.620;2023-10-31T08:44:43;2.73;;;1.10;;
22388;SDS011;11362;48.102;11.620;2023-10-31T08:47:08;3.43;;;1.20;;
22388;SDS011;11362;48.102;11.620;2023-10-31T08:49:33;4.53;;;1.03;;
22388;SDS011;11362;48.102;11.620;2023-10-31T08:51:59;3.57;;;1.53;;
22388;SDS011;11362;48.102;11.620;2023-10-31T08:54:24;3.50;;;1.00;;
22388;SDS011;11362;48.102;11.620;2023-10-31T08:56:49;2.77;;;1.20;;
22388;SDS011;11362;48.102;11.620;2023-10-31T08:59:14;3.57;;;0.93;;
22388;SDS011;11362;48.102;11.620;2023-10-31T09:01:40;2.20;;;1.20;;
22388;SDS011;11362;48.102;11.620;2023-10-31T09:04:05;4.23;;;1.07;;
22388;SDS011;11362;48.102;11.620;2023-10-31T09:06:30;1.73;;;0.97;;
22388;SDS011;11362;48.102;11.620;2023-10-31T09:08:56;2.13;;;1.07;;
22388;SDS011;11362;48.102;11.620;2023-10-31T09:11:21;1.53;;;0.80;;
22388;SDS011;11362;48.102;11.620;2023-10-31T09:13:46;1.93;;;0.77;;
22388;SDS011;11362;48.102;11.620;2023-10-31T09:16:11;2.40;;;0.73;;
22388;SDS011;11362;48.102;11.620;2023-10-31T09:18:37;0.90;;;0.73;;
22388;SDS011;11362;48.102;11.620;2023-10-31T09:21:02;2.60;;;1.10;;
22388;SDS011;11362;48.102;11.620;2023-10-31T09:23:28;2.90;;;0.90;;
22388;SDS011;11362;48.102;11.620;2023-10-31T09:25:53;3.17;;;1.10;;
22388;SDS011;11362;48.102;11.620;2023-10-31T09:28:18;3.50;;;1.17;;
22388;SDS011;11362;48.102;11.620;2023-10-31T09:30:43;4.00;;;1.07;;
22388;SDS011;11362;48.102;11.620;2023-10-31T09:33:09;2.80;;;0.90;;
22388;SDS011;11362;48.102;11.620;2023-10-31T09:35:34;0.90;;;0.50;;
22388;SDS011;11362;48.102;11.620;2023-10-31T09:37:59;1.93;;;0.80;;
22388;SDS011;11362;48.102;11.620;2023-10-31T09:40:25;1.47;;;0.97;;
22388;SDS011;11362;48.102;11.620;2023-10-31T09:42:51;1.70;;;0.90;;
22388;SDS011;11362;48.102;11.620;2023-10-31T09:45:16;3.70;;;1.07;;
22388;SDS011;11362;48.102;11.620;2023-10-31T09:47:42;0.90;;;0.70;;
22388;SDS011;11362;48.102;11.620;2023-10-31T09:50:08;1.57;;;0.87;;
22388;SDS011;11362;48.102;11.620;2023-10-31T09:52:33;2.07;;;0.60;;
22388;SDS011;11362;48.102;11.620;2023-10-31T09:55:00;2.43;;;1.10;;
22388;SDS011;11362;48.102;11.620;2023-10-31T09:57:27;2.73;;;1.00;;
22388;SDS011;11362;48.102;11.620;2023-10-31T09:59:52;4.20;;;1.00;;
22388;SDS011;11362;48.102;11.620;2023-10-31T10:02:18;2.40;;;1.13;;
22388;SDS011;11362;48.102;11.620;2023-10-31T10:04:43;2.20;;;1.00;;
22388;SDS011;11362;48.102;11.620;2023-10-31T10:07:08;1.07;;;0.83;;
22388;SDS011;11362;48.102;11.620;2023-10-31T10:09:40;2.20;;;0.93;;
22388;SDS011;11362;48.102;11.620;2023-10-31T10:12:05;3.93;;;0.77;;
22388;SDS011;11362;48.102;11.620;2023-10-31T10:14:31;2.93;;;0.60;;
22388;SDS011;11362;48.102;11.620;2023-10-31T10:16:57;1.77;;;0.70;;
22388;SDS011;11362;48.102;11.620;2023-10-31T10:19:22;2.17;;;0.90;;
22388;SDS011;11362;48.102;11.620;2023-10-31T10:21:49;1.77;;;0.90;;
22388;SDS011;11362;48.102;11.620;2023-10-31T10:24:16;1.40;;;0.90;;
22388;SDS011;11362;48.102;11.620;2023-10-31T10:26:42;4.67;;;1.03;;
22388;SDS011;11362;48.102;11.620;2023-10-31T10:29:07;2.93;;;1.30;;
22388;SDS011;11362;48.102;11.620;2023-10-31T10:31:33;3.97;;;1.07;;
22388;SDS011;11362;48.102;11.620;2023-10-31T10:33:58;1.93;;;1.17;;
22388;SDS011;11362;48.102;11.620;2023-10-31T10:36:23;1.23;;;1.13;;
22388;SDS011;11362;48.102;11.620;2023-10-31T10:38:51;1.60;;;0.90;;
22388;SDS011;11362;48.102;11.620;2023-10-31T10:41:21;3.27;;;1.23;;
22388;SDS011;11362;48.102;11.620;2023-10-31T10:43:50;2.23;;;0.90;;
22388;SDS011;11362;48.102;11.620;2023-10-31T10:46:30;1.97;;;1.10;;
22388;SDS011;11362;48.102;11.620;2023-10-31T10:48:58;4.57;;;1.30;;
22388;SDS011;11362;48.102;11.620;2023-10-31T10:51:43;2.23;;;1.20;;
22388;SDS011;11362;48.102;11.620;2023-10-31T10:54:32;4.00;;;1.17;;
22388;SDS011;11362;48.102;11.620;2023-10-31T10:57:10;1.90;;;1.17;;
22388;SDS011;11362;48.102;11.620;2023-10-31T10:59:42;4.47;;;1.37;;
22388;SDS011;11362;48.102;11.620;2023-10-31T11:02:11;8.47;;;1.20;;
22388;SDS011;11362;48.102;11.620;2023-10-31T11:04:37;5.93;;;1.90;;
22388;SDS011;11362;48.102;11.620;2023-10-31T11:07:04;0.97;;;0.80;;
22388;SDS011;11362;48.102;11.620;2023-10-31T11:09:30;7.57;;;1.40;;
22388;SDS011;11362;48.102;11.620;2023-10-31T11:11:56;3.70;;;1.40;;
22388;SDS011;11362;48.102;11.620;2023-10-31T11:14:22;2.83;;;1.17;;
22388;SDS011;11362;48.102;11.620;2023-10-31T11:16:51;2.00;;;1.23;;
22388;SDS011;11362;48.102;11.620;2023-10-31T11:19:19;2.10;;;1.27;;
22388;SDS011;11362;48.102;11.620;2023-10-31T11:24:23;4.23;;;1.30;;
22388;SDS011;11362;48.102;11.620;2023-10-31T11:26:51;1.87;;;1.27;;
22388;SDS011;11362;48.102;11.620;2023-10-31T11:29:18;3.30;;;1.10;;
22388;SDS011;11362;48.102;11.620;2023-10-31T11:31:43;3.03;;;1.33;;
22388;SDS011;11362;48.102;11.620;2023-10-31T11:34:08;2.43;;;1.30;;
22388;SDS011;11362;48.102;11.620;2023-10-31T11:36:35;4.37;;;1.40;;
22388;SDS011;11362;48.102;11.620;2023-10-31T11:39:19;3.90;;;1.17;;
22388;SDS011;11362;48.102;11.620;2023-10-31T11:41:49;3.20;;;1.30;;
22388;SDS011;11362;48.102;11.620;2023-10-31T11:44:16;4.30;;;1.27;;
22388;SDS011;11362;48.102;11.620;2023-10-31T11:46:42;2.07;;;1.27;;
22388;SDS011;11362;48.102;11.620;2023-10-31T11:49:07;2.40;;;0.90;;
22388;SDS011;11362;48.102;11.620;2023-10-31T11:51:33;4.33;;;1.40;;
22388;SDS011;11362;48.102;11.620;2023-10-31T11:54:01;2.77;;;1.10;;
22388;SDS011;11362;48.102;11.620;2023-10-31T11:56:27;2.60;;;1.30;;
22388;SDS011;11362;48.102;11.620;2023-10-31T11:59:01;4.13;;;1.53;;
22388;SDS011;11362;48.102;11.620;2023-10-31T12:01:28;2.73;;;1.30;;
22388;SDS011;11362;48.102;11.620;2023-10-31T12:03:53;2.73;;;1.23;;
22388;SDS011;11362;48.102;11.620;2023-10-31T12:06:18;5.30;;;1.50;;
22388;SDS011;11362;48.102;11.620;2023-10-31T12:08:44;4.13;;;1.40;;
22388;SDS011;11362;48.102;11.620;2023-10-31T12:11:10;1.70;;;1.03;;
22388;SDS011;11362;48.102;11.620;2023-10-31T12:13:38;3.33;;;1.30;;
22388;SDS011;11362;48.102;11.620;2023-10-31T12:16:05;3.90;;;0.97;;
22388;SDS011;11362;48.102;11.620;2023-10-31T12:18:31;3.90;;;1.27;;
22388;SDS011;11362;48.102;11.620;2023-10-31T12:20:57;3.00;;;1.60;;
22388;SDS011;11362;48.102;11.620;2023-10-31T12:23:22;3.27;;;0.93;;
22388;SDS011;11362;48.102;11.620;2023-10-31T12:25:50;5.33;;;1.13;;
22388;SDS011;11362;48.102;11.620;2023-10-31T12:28:17;3.70;;;1.10;;
22388;SDS011;11362;48.102;11.620;2023-10-31T12:30:47;4.07;;;1.10;;
22388;SDS011;11362;48.102;11.620;2023-10-31T12:33:13;3.03;;;0.83;;
22388;SDS011;11362;48.102;11.620;2023-10-31T12:35:39;2.23;;;0.80;;
22388;SDS011;11362;48.102;11.620;2023-10-31T12:38:04;4.43;;;1.23;;
22388;SDS011;11362;48.102;11.620;2023-10-31T12:40:31;1.93;;;0.93;;
22388;SDS011;11362;48.102;11.620;2023-10-31T12:42:56;4.27;;;1.10;;
22388;SDS011;11362;48.102;11.620;2023-10-31T12:45:24;4.60;;;1.10;;
22388;SDS011;11362;48.102;11.620;2023-10-31T12:48:08;2.50;;;0.97;;
22388;SDS011;11362;48.102;11.620;2023-10-31T12:50:36;2.03;;;0.90;;
22388;SDS011;11362;48.102;11.620;2023-10-31T12:53:02;4.90;;;1.60;;
22388;SDS011;11362;48.102;11.620;2023-10-31T12:55:27;2.17;;;0.80;;
22388;SDS011;11362;48.102;11.620;2023-10-31T12:57:53;1.93;;;1.10;;
22388;SDS011;11362;48.102;11.620;2023-10-31T13:00:20;3.97;;;1.10;;
22388;SDS011;11362;48.102;11.620;2023-10-31T13:02:46;1.37;;;1.10;;
22388;SDS011;11362;48.102;11.620;2023-10-31T13:05:12;1.80;;;0.90;;
22388;SDS011;11362;48.102;11.620;2023-10-31T13:07:39;2.80;;;0.80;;
22388;SDS011;11362;48.102;11.620;2023-10-31T13:10:15;0.67;;;0.60;;
22388;SDS011;11362;48.102;11.620;2023-10-31T13:12:43;1.03;;;0.60;;
22388;SDS011;11362;48.102;11.620;2023-10-31T13:15:09;1.53;;;0.90;;
22388;SDS011;11362;48.102;11.620;2023-10-31T13:17:34;2.00;;;0.80;;
22388;SDS011;11362;48.102;11.620;2023-10-31T13:19:59;1.53;;;0.60;;
22388;SDS011;11362;48.102;11.620;2023-10-31T13:22:25;2.23;;;0.90;;
22388;SDS011;11362;48.102;11.620;2023-10-31T13:24:50;3.73;;;0.90;;
22388;SDS011;11362;48.102;11.620;2023-10-31T13:27:15;0.93;;;0.70;;
22388;SDS011;11362;48.102;11.620;2023-10-31T13:29:40;1.83;;;0.73;;
22388;SDS011;11362;48.102;11.620;2023-10-31T13:32:06;1.67;;;0.60;;
22388;SDS011;11362;48.102;11.620;2023-10-31T13:34:31;3.90;;;1.00;;
22388;SDS011;11362;48.102;11.620;2023-10-31T13:36:56;2.37;;;0.97;;
22388;SDS011;11362;48.102;11.620;2023-10-31T13:39:21;4.30;;;1.20;;
22388;SDS011;11362;48.102;11.620;2023-10-31T13:41:47;4.80;;;1.23;;
22388;SDS011;11362;48.102;11.620;2023-10-31T13:44:12;11.13;;;1.40;;
22388;SDS011;11362;48.102;11.620;2023-10-31T13:46:37;9.10;;;1.30;;
22388;SDS011;11362;48.102;11.620;2023-10-31T13:49:03;7.63;;;1.77;;
22388;SDS011;11362;48.102;11.620;2023-10-31T13:51:28;13.33;;;1.90;;
22388;SDS011;11362;48.102;11.620;2023-10-31T13:53:53;11.13;;;2.60;;
22388;SDS011;11362;48.102;11.620;2023-10-31T13:56:18;15.23;;;2.10;;
22388;SDS011;11362;48.102;11.620;2023-10-31T13:58:44;10.07;;;2.10;;
22388;SDS011;11362;48.102;11.620;2023-10-31T14:01:09;15.60;;;1.83;;
22388;SDS011;11362;48.102;11.620;2023-10-31T14:03:34;11.40;;;1.90;;
22388;SDS011;11362;48.102;11.620;2023-10-31T14:06:00;13.53;;;2.53;;
22388;SDS011;11362;48.102;11.620;2023-10-31T14:08:25;13.00;;;2.50;;
22388;SDS011;11362;48.102;11.620;2023-10-31T14:10:50;35.27;;;3.33;;
22388;SDS011;11362;48.102;11.620;2023-10-31T14:13:16;12.03;;;2.10;;
22388;SDS011;11362;48.102;11.620;2023-10-31T14:15:42;9.53;;;2.70;;
22388;SDS011;11362;48.102;11.620;2023-10-31T14:18:07;12.37;;;2.43;;
22388;SDS011;11362;48.102;11.620;2023-10-31T14:20:32;11.60;;;2.23;;
22388;SDS011;11362;48.102;11.620;2023-10-31T14:22:57;12.17;;;1.93;;
22388;SDS011;11362;48.102;11.620;2023-10-31T14:25:23;15.07;;;2.40;;
22388;SDS011;11362;48.102;11.620;2023-10-31T14:27:48;9.00;;;2.27;;